Decoded Metar for LFAT (LE TOURQUET in FRANCE) (IATA:LTQ) | Meteo·Mobile Aviation Weather
aviador You're here:

LFAT Decoded Metar

LE TOURQUET in FRANCE
Report Time2019-07-22 15:30:00
UTC Time2019-07-22 15:50:28
Flight Rules vfr VFR
Wind350° at 08 kt
W.Decomp.*RWY 32: 6.8 kt HW 4.2 kt RCW
Visibility9999 m
Phenomena:N/A
Clouds:N/A
Expected CloudBase > 2,800 ft AGL from Temp-Dew spread
CeilingNone
Temp23°C (ISA +8)
Dew Point16°C (65% RH)
AAT22.1°C
QNH1023 hPa
Density Alt892 ft
Elevation46 ft
Report Wrong Elevation
Raw Report
LFAT 221530Z AUTO 35008KT 310V010 CAVOK 23/16 Q1023 NOSIG=

Extra information for LFAT:More info

Metar Taf Metar & Taf Last 4 Metars F.Rules Stats Wind Profile Meteogram Temp Stats Airport Information Weather charts Add Link Nearby VenuesMetar ALERT Operation Metar Decoded Social comments

LeTouquet left-side RWY
Le Touquet center RWY
Le Touquet right-side RWY